Time;durP1;ratioP1;P1;durP2;ratioP2;P2;SDS_P1;SDS_P2;PMS_P1;PMS_P2;Temp;Humidity;BMP_temperature;BMP_pressure;BME280_temperature;BME280_humidity;BME280_pressure;Samples;Min_cycle;Max_cycle;Signal;HPM_P1;HPM_P2
2022/05/18 00:00:58;;;;;;;8.27;4.57;;;;;;;14.77;100.00;96711.63;5019089;28;20036;-75
2022/05/18 00:03:31;;;;;;;6.40;4.30;;;;;;;14.80;100.00;96711.28;5016536;28;20037;-75
2022/05/18 00:05:59;;;;;;;;;;;;;;;14.77;100.00;96706.31;5016680;28;20021;-75
2022/05/18 00:08:25;;;;;;;7.30;4.80;;;;;;;14.74;100.00;96711.13;5014758;28;19917;-75
2022/05/18 00:10:51;;;;;;;8.63;4.63;;;;;;;14.77;100.00;96710.78;5015722;28;20120;-75
2022/05/18 00:13:17;;;;;;;8.63;4.50;;;;;;;14.76;100.00;96711.81;5021041;28;20618;-75
2022/05/18 00:15:44;;;;;;;6.63;4.37;;;;;;;14.64;100.00;96716.63;5022027;28;20553;-75
2022/05/18 00:18:10;;;;;;;6.57;4.50;;;;;;;14.66;100.00;96717.31;5029349;28;20064;-75
2022/05/18 00:20:36;;;;;;;15.57;4.67;;;;;;;14.70;100.00;96717.78;5035585;28;20108;-75
2022/05/18 00:23:03;;;;;;;7.60;4.50;;;;;;;14.71;100.00;96717.59;5007760;28;20028;-75
2022/05/18 00:25:33;;;;;;;7.07;4.97;;;;;;;14.61;100.00;96724.94;5029916;28;20033;-75
2022/05/18 00:27:59;;;;;;;7.50;4.10;;;;;;;14.57;100.00;96728.91;5024588;28;20530;-75
2022/05/18 00:30:27;;;;;;;9.03;4.10;;;;;;;14.55;100.00;96720.31;5024123;28;20026;-75
2022/05/18 00:32:53;;;;;;;8.80;4.87;;;;;;;14.55;100.00;96720.31;5016005;28;20040;-75
2022/05/18 00:35:21;;;;;;;6.73;4.00;;;;;;;14.65;100.00;96725.41;5022493;28;20025;-75
2022/05/18 00:37:46;;;;;;;6.87;4.47;;;;;;;14.70;100.00;96728.38;5035637;28;20108;-75
2022/05/18 00:40:15;;;;;;;6.87;4.17;;;;;;;14.71;100.00;96724.72;5021630;28;20044;-75
2022/05/18 00:42:41;;;;;;;7.07;3.83;;;;;;;14.61;100.00;96724.94;5026112;28;20577;-75
2022/05/18 00:45:07;;;;;;;8.03;4.77;;;;;;;14.42;100.00;96731.44;5015672;28;20044;-75
2022/05/18 00:47:34;;;;;;;7.83;4.27;;;;;;;14.44;100.00;96725.97;5016124;28;20505;-75
2022/05/18 00:50:04;;;;;;;9.27;5.40;;;;;;;14.41;100.00;96729.75;5025732;28;20036;-75
2022/05/18 00:52:46;;;;;;;8.27;4.83;;;;;;;14.29;100.00;96726.69;5023633;28;20108;-75
2022/05/18 00:55:15;;;;;;;8.80;4.90;;;;;;;14.33;100.00;96722.69;5008018;28;20049;-75
2022/05/18 00:58:03;;;;;;;8.33;4.37;;;;;;;14.20;100.00;96724.22;5020732;28;20033;-75
2022/05/18 01:00:29;;;;;;;9.07;4.93;;;;;;;14.18;100.00;96724.38;5023295;28;20029;-75
2022/05/18 01:03:00;;;;;;;7.97;4.50;;;;;;;14.18;100.00;96720.91;5023582;28;20070;-75
2022/05/18 01:05:31;;;;;;;11.60;7.07;;;;;;;14.22;100.00;96731.00;5020251;28;20120;-75
2022/05/18 01:07:59;;;;;;;8.63;5.97;;;;;;;14.15;100.00;96724.72;5018951;28;20036;-75
2022/05/18 01:10:28;;;;;;;6.27;4.43;;;;;;;14.19;100.00;96731.34;5026907;28;20041;-75
2022/05/18 01:12:55;;;;;;;9.90;4.57;;;;;;;14.14;100.00;96729.19;5019318;28;20065;-75
2022/05/18 01:15:22;;;;;;;10.07;5.10;;;;;;;14.07;100.00;96730.03;5020656;28;20030;-75
2022/05/18 01:17:53;;;;;;;8.57;5.37;;;;;;;14.11;100.00;96726.88;5009643;28;20032;-75
2022/05/18 01:20:26;;;;;;;6.63;4.60;;;;;;;14.02;100.00;96725.28;5026000;28;20174;-75
2022/05/18 01:23:12;;;;;;;;;;;;;;;13.98;100.00;96728.41;5015892;28;21123;-75
2022/05/18 01:25:53;;;;;;;14.93;5.70;;;;;;;13.96;100.00;96735.69;5022199;28;19920;-75
2022/05/18 01:28:23;;;;;;;8.23;5.37;;;;;;;13.80;100.00;96732.06;5028698;28;20060;-75
2022/05/18 01:30:49;;;;;;;11.97;6.00;;;;;;;13.52;100.00;96736.88;5024368;28;20745;-75
2022/05/18 01:33:18;;;;;;;9.40;5.83;;;;;;;13.55;100.00;96725.97;5024034;28;20032;-75
2022/05/18 01:35:46;;;;;;;7.63;4.90;;;;;;;13.54;100.00;96734.88;5022251;28;20487;-75
2022/05/18 01:38:13;;;;;;;10.30;5.70;;;;;;;13.52;100.00;96734.25;5003252;28;20101;-77
2022/05/18 01:40:53;;;;;;;10.00;5.53;;;;;;;13.53;100.00;96738.53;5012904;28;20045;-75
2022/05/18 01:43:33;;;;;;;10.60;6.03;;;;;;;13.53;100.00;96730.59;5019858;28;20076;-75
2022/05/18 01:46:02;;;;;;;10.30;6.40;;;;;;;13.55;100.00;96727.81;5018544;28;20060;-75
2022/05/18 01:48:34;;;;;;;8.63;5.77;;;;;;;13.57;100.00;96733.72;5031796;28;20108;-76
2022/05/18 01:51:03;;;;;;;11.30;6.43;;;;;;;13.55;100.00;96731.28;5032815;28;20028;-75
2022/05/18 01:53:30;;;;;;;8.20;5.83;;;;;;;13.57;100.00;96736.38;5030633;28;20383;-75
2022/05/18 01:55:56;;;;;;;9.67;5.70;;;;;;;13.54;100.00;96737.53;5036960;28;20555;-75
2022/05/18 01:58:22;;;;;;;10.37;5.53;;;;;;;13.53;100.00;96732.41;5032150;28;20064;-75
2022/05/18 02:00:49;;;;;;;10.77;6.20;;;;;;;13.51;100.00;96739.66;5035678;28;20035;-76
2022/05/18 02:03:16;;;;;;;10.63;6.00;;;;;;;13.52;100.00;96738.69;5034606;28;20037;-75
2022/05/18 02:05:42;;;;;;;8.90;5.90;;;;;;;13.50;100.00;96740.66;5031834;28;20083;-76
2022/05/18 02:08:10;;;;;;;12.30;6.80;;;;;;;13.52;100.00;96749.28;5010690;28;20667;-76
2022/05/18 02:10:37;;;;;;;7.93;5.17;;;;;;;13.49;100.00;96744.31;5034211;28;20040;-76
2022/05/18 02:13:03;;;;;;;7.63;5.30;;;;;;;13.40;100.00;96746.94;5016686;28;20038;-76
2022/05/18 02:15:29;;;;;;;11.47;6.77;;;;;;;13.37;100.00;96752.53;5032070;28;20029;-76
2022/05/18 02:17:56;;;;;;;9.50;6.70;;;;;;;13.30;100.00;96738.34;5029477;28;20024;-76
2022/05/18 02:20:21;;;;;;;17.77;5.73;;;;;;;13.28;100.00;96728.94;5023801;28;20064;-76
2022/05/18 02:22:47;;;;;;;10.83;5.70;;;;;;;13.31;100.00;96736.53;5042525;28;20065;-76
2022/05/18 02:25:13;;;;;;;9.70;5.67;;;;;;;13.35;100.00;96738.69;5038750;28;20119;-76
2022/05/18 02:27:39;;;;;;;8.03;5.40;;;;;;;13.43;100.00;96737.88;5034699;28;20072;-76
2022/05/18 02:30:07;;;;;;;10.90;6.07;;;;;;;13.40;100.00;96746.94;5028687;28;20039;-76
2022/05/18 02:32:33;;;;;;;11.47;5.50;;;;;;;13.46;100.00;96744.63;5022550;28;20060;-76
2022/05/18 02:34:59;;;;;;;10.27;5.77;;;;;;;13.40;100.00;96741.66;5033041;28;20795;-76
2022/05/18 02:37:24;;;;;;;10.07;6.00;;;;;;;13.36;100.00;96750.91;5034678;28;20104;-76
2022/05/18 02:39:50;;;;;;;9.33;5.83;;;;;;;13.18;100.00;96752.84;5034778;28;20493;-75
2022/05/18 02:42:16;;;;;;;10.57;6.10;;;;;;;13.03;100.00;96750.00;5016834;28;20467;-76
2022/05/18 02:44:42;;;;;;;9.90;5.93;;;;;;;13.08;100.00;96752.16;5026782;28;20033;-76
2022/05/18 02:47:07;;;;;;;12.57;6.43;;;;;;;13.11;100.00;96747.38;5041305;28;20052;-76
2022/05/18 02:49:33;;;;;;;12.07;6.27;;;;;;;13.11;100.00;96752.66;5022725;28;20893;-76
2022/05/18 02:51:59;;;;;;;8.67;6.20;;;;;;;13.12;100.00;96737.63;5026030;28;20054;-76
2022/05/18 02:57:10;;;;;;;7.93;5.53;;;;;;;12.95;100.00;96737.59;5035277;28;20218;-76
2022/05/18 02:59:36;;;;;;;9.17;6.50;;;;;;;12.95;100.00;96736.78;5029888;28;20027;-76
2022/05/18 03:02:02;;;;;;;9.90;5.50;;;;;;;13.12;100.00;96737.63;5028726;28;20112;-76
2022/05/18 03:04:32;;;;;;;7.20;4.40;;;;;;;13.46;100.00;96740.19;5030978;28;20076;-76
2022/05/18 03:06:59;;;;;;;6.33;4.03;;;;;;;13.62;100.00;96740.19;5027406;28;20036;-75
2022/05/18 03:09:25;;;;;;;7.50;4.80;;;;;;;13.66;100.00;96735.38;5028719;28;20048;-75
2022/05/18 03:11:50;;;;;;;6.30;4.40;;;;;;;13.52;100.00;96744.81;5025340;28;20040;-76
2022/05/18 03:14:17;;;;;;;10.53;5.40;;;;;;;13.25;100.00;96748.59;5031700;28;20041;-76
2022/05/18 03:16:44;;;;;;;9.83;6.43;;;;;;;13.19;100.00;96749.19;5030468;28;20111;-75
2022/05/18 03:19:10;;;;;;;9.50;6.13;;;;;;;13.22;100.00;96748.88;5034142;28;20386;-75
2022/05/18 03:24:20;;;;;;;22.90;14.73;;;;;;;13.06;100.00;96762.06;5029787;28;20037;-76
2022/05/18 03:26:47;;;;;;;33.50;19.00;;;;;;;12.98;100.00;96768.97;5039101;28;20160;-76
2022/05/18 03:29:13;;;;;;;16.47;10.50;;;;;;;13.06;100.00;96767.31;5040402;28;20067;-76
2022/05/18 03:31:39;;;;;;;10.03;7.13;;;;;;;13.09;100.00;96769.66;5021476;28;20029;-76
2022/05/18 03:34:08;;;;;;;8.47;5.80;;;;;;;13.00;100.00;96762.69;5026257;28;20124;-76
2022/05/18 03:36:34;;;;;;;9.83;6.20;;;;;;;12.94;100.00;96758.88;5042592;28;20034;-75
2022/05/18 03:39:01;;;;;;;9.83;5.87;;;;;;;12.92;100.00;96764.31;5040489;28;20386;-75
2022/05/18 03:41:26;;;;;;;10.23;5.53;;;;;;;12.95;100.00;96765.81;5024911;28;20061;-76
2022/05/18 03:43:53;;;;;;;8.57;6.20;;;;;;;12.97;100.00;96772.56;5046224;28;20818;-76
2022/05/18 03:46:18;;;;;;;10.30;6.03;;;;;;;12.96;100.00;96781.50;5035903;28;20025;-76
2022/05/18 03:48:45;;;;;;;16.23;7.00;;;;;;;13.01;100.00;96785.47;5039254;28;20041;-75
2022/05/18 03:51:12;;;;;;;10.37;6.03;;;;;;;12.93;100.00;96781.81;5040138;28;20390;-76
2022/05/18 03:53:39;;;;;;;12.47;7.20;;;;;;;12.92;100.00;96785.44;5032228;28;20483;-76
2022/05/18 03:56:05;;;;;;;8.27;5.70;;;;;;;12.89;100.00;96787.59;5030326;28;20546;-76
2022/05/18 03:58:31;;;;;;;9.90;5.90;;;;;;;12.93;100.00;96781.81;5023180;28;20033;-76
2022/05/18 04:01:01;;;;;;;11.17;5.63;;;;;;;12.92;100.00;96792.53;5035066;28;20038;-76
2022/05/18 04:03:29;;;;;;;8.23;5.60;;;;;;;12.89;100.00;96782.31;5037267;28;20033;-76
2022/05/18 04:05:58;;;;;;;9.60;5.77;;;;;;;12.95;100.00;96794.88;5029110;28;20060;-75
2022/05/18 04:08:24;;;;;;;7.97;5.20;;;;;;;12.96;100.00;96784.13;5037653;28;20021;-76
2022/05/18 04:10:49;;;;;;;10.83;5.57;;;;;;;13.01;100.00;96788.94;5037019;28;20025;-76
2022/05/18 04:13:18;;;;;;;8.73;4.97;;;;;;;13.16;100.00;96795.25;5036067;28;20502;-75
2022/05/18 04:15:45;;;;;;;10.30;5.13;;;;;;;13.49;100.00;96802.44;5030460;28;20034;-76
2022/05/18 04:18:11;;;;;;;8.23;5.23;;;;;;;13.54;100.00;96805.41;5033132;28;20028;-76
2022/05/18 04:20:38;;;;;;;10.00;5.47;;;;;;;13.61;100.00;96799.28;5025429;28;20065;-75
2022/05/18 04:23:05;;;;;;;9.10;5.10;;;;;;;13.70;100.00;96794.84;5036216;28;20087;-76
2022/05/18 04:25:31;;;;;;;6.90;4.60;;;;;;;13.78;100.00;96807.22;5026797;28;20026;-78
2022/05/18 04:27:57;;;;;;;9.67;4.97;;;;;;;13.88;100.00;96803.47;5040310;28;20035;-78
2022/05/18 04:30:25;;;;;;;9.80;5.57;;;;;;;13.94;100.00;96801.13;5018493;28;20033;-78
2022/05/18 04:32:53;;;;;;;8.90;4.97;;;;;;;14.04;100.00;96799.13;5047408;28;20041;-78
2022/05/18 04:35:21;;;;;;;10.10;4.27;;;;;;;14.05;100.00;96800.78;5029239;28;20034;-78
2022/05/18 04:37:47;;;;;;;9.23;5.20;;;;;;;14.06;100.00;96799.81;5019299;28;20064;-78
2022/05/18 04:40:14;;;;;;;7.47;4.97;;;;;;;14.13;100.00;96800.78;5017955;28;20038;-77
2022/05/18 04:42:40;;;;;;;8.17;4.77;;;;;;;14.15;100.00;96801.41;5021309;28;20041;-78
2022/05/18 04:45:09;;;;;;;9.83;5.80;;;;;;;14.22;100.00;96802.44;5020192;28;20027;-78
2022/05/18 04:47:35;;;;;;;7.90;4.97;;;;;;;14.20;100.00;96811.53;5030884;28;20124;-79
2022/05/18 04:50:01;;;;;;;8.97;4.87;;;;;;;14.45;100.00;96799.88;5024181;28;20025;-78
2022/05/18 04:52:27;;;;;;;9.47;5.07;;;;;;;14.48;100.00;96810.13;5013042;28;20511;-78
2022/05/18 04:54:52;;;;;;;7.97;5.13;;;;;;;14.63;100.00;96809.47;5032464;28;20124;-77
2022/05/18 04:57:18;;;;;;;11.20;5.07;;;;;;;14.67;100.00;96819.53;5036982;28;20017;-78
2022/05/18 04:59:45;;;;;;;10.07;6.10;;;;;;;14.63;100.00;96815.59;5018393;28;20038;-79
2022/05/18 05:02:14;;;;;;;8.37;5.13;;;;;;;14.48;100.00;96826.00;5028479;28;20021;-78
2022/05/18 05:04:40;;;;;;;10.17;5.73;;;;;;;14.72;100.00;96817.22;5038709;28;20046;-78
2022/05/18 05:07:05;;;;;;;11.73;5.53;;;;;;;14.76;100.00;96825.66;5034892;28;20115;-78
2022/05/18 05:09:31;;;;;;;8.43;5.27;;;;;;;14.96;100.00;96828.72;5042524;28;20033;-78
2022/05/18 05:11:57;;;;;;;9.53;5.53;;;;;;;15.18;100.00;96827.09;5033766;28;20035;-77
2022/05/18 05:14:23;;;;;;;8.17;5.70;;;;;;;15.35;100.00;96828.66;5032480;28;20120;-78
2022/05/18 05:16:49;;;;;;;9.47;5.93;;;;;;;15.57;100.00;96838.47;5011256;28;20128;-79
2022/05/18 05:19:16;;;;;;;9.00;5.30;;;;;;;15.67;100.00;96834.81;5026640;28;20032;-78
2022/05/18 05:21:42;;;;;;;10.33;5.57;;;;;;;15.69;100.00;96838.94;5023920;28;20037;-77
2022/05/18 05:24:17;;;;;;;10.03;5.20;;;;;;;15.96;100.00;96836.72;5031644;28;20108;-77
2022/05/18 05:26:44;;;;;;;8.73;5.07;;;;;;;16.03;100.00;96849.13;5033765;28;20072;-77
2022/05/18 05:29:11;;;;;;;9.30;5.20;;;;;;;16.30;100.00;96846.06;5039486;28;20398;-77
2022/05/18 05:31:37;;;;;;;8.77;4.93;;;;;;;16.19;100.00;96842.84;5034680;28;20446;-77
2022/05/18 05:34:04;;;;;;;8.07;4.50;;;;;;;16.37;100.00;96847.84;5041206;28;20069;-79
2022/05/18 05:36:30;;;;;;;9.10;4.87;;;;;;;16.51;100.00;96846.22;5027684;28;20037;-78
2022/05/18 05:38:57;;;;;;;8.48;4.40;;;;;;;16.65;100.00;96832.09;5035607;28;20489;-77
2022/05/18 05:41:23;;;;;;;7.40;4.88;;;;;;;16.94;100.00;96835.81;5021774;28;20116;-77
2022/05/18 05:43:50;;;;;;;8.33;4.77;;;;;;;17.09;100.00;96843.75;5047738;28;20043;-78
2022/05/18 05:46:17;;;;;;;7.28;4.50;;;;;;;17.47;100.00;96841.78;5042209;28;20480;-78
2022/05/18 05:48:45;;;;;;;7.32;4.30;;;;;;;17.64;99.69;96843.19;5035184;28;20084;-77
2022/05/18 05:51:13;;;;;;;8.02;5.00;;;;;;;17.88;99.37;96849.19;5017974;28;20087;-78
2022/05/18 05:53:39;;;;;;;7.53;4.30;;;;;;;18.17;98.57;96844.72;5034974;28;20045;-77
2022/05/18 05:56:07;;;;;;;7.10;4.40;;;;;;;18.08;97.50;96855.50;5030797;28;20037;-77
2022/05/18 05:58:35;;;;;;;7.22;4.95;;;;;;;18.29;95.73;96856.50;5010511;28;20018;-77
2022/05/18 06:01:03;;;;;;;8.20;4.43;;;;;;;18.80;92.83;96846.44;5038349;28;20053;-77
2022/05/18 06:03:29;;;;;;;9.57;4.50;;;;;;;18.99;92.41;96841.44;5030903;28;20038;-77
2022/05/18 06:06:02;;;;;;;9.75;4.47;;;;;;;19.08;89.82;96845.59;5038061;28;20084;-78
2022/05/18 06:08:38;;;;;;;9.25;4.88;;;;;;;19.68;88.63;96841.28;5026344;28;20056;-78
2022/05/18 06:11:06;;;;;;;7.35;3.90;;;;;;;19.51;89.38;96834.66;5047450;28;20110;-78
2022/05/18 06:13:32;;;;;;;8.90;4.50;;;;;;;19.64;88.61;96844.59;5043032;28;20035;-78
2022/05/18 06:15:59;;;;;;;8.68;5.05;;;;;;;19.84;87.84;96845.44;5019670;28;20041;-78
2022/05/18 06:18:26;;;;;;;6.25;3.88;;;;;;;19.75;86.57;96852.84;5035547;28;20394;-78
2022/05/18 06:20:52;;;;;;;6.45;3.55;;;;;;;19.94;81.52;96851.22;5040448;28;20037;-79
2022/05/18 06:23:18;;;;;;;7.40;3.00;;;;;;;19.59;82.29;96850.50;5039924;28;20040;-78
2022/05/18 06:25:44;;;;;;;7.80;4.80;;;;;;;20.15;79.09;96849.38;5049312;28;20029;-78
2022/05/18 06:28:10;;;;;;;7.05;3.95;;;;;;;20.69;76.42;96851.03;5037923;28;20056;-78
2022/05/18 06:30:36;;;;;;;7.97;4.20;;;;;;;20.68;74.07;96849.41;5039402;28;20044;-78
2022/05/18 06:33:03;;;;;;;7.80;3.50;;;;;;;20.64;74.21;96857.00;5024995;28;20025;-78
2022/05/18 06:35:29;;;;;;;8.13;3.92;;;;;;;20.51;75.08;96854.34;5035414;28;20030;-78
2022/05/18 06:37:54;;;;;;;8.38;4.35;;;;;;;20.90;72.84;96856.16;5028840;28;20022;-78
2022/05/18 06:40:20;;;;;;;9.98;3.78;;;;;;;20.73;73.64;96857.63;5020414;28;20036;-78
2022/05/18 06:42:45;;;;;;;6.90;3.42;;;;;;;21.10;70.13;96855.28;5037302;28;20586;-78
2022/05/18 06:45:13;;;;;;;6.28;3.25;;;;;;;21.81;66.71;96852.53;5046042;28;20048;-78
2022/05/18 06:47:39;;;;;;;8.13;3.70;;;;;;;22.01;64.49;96851.56;5042327;28;20082;-78
2022/05/18 06:50:09;;;;;;;8.50;3.85;;;;;;;22.25;63.92;96858.84;5039583;28;20036;-78
2022/05/18 06:52:35;;;;;;;7.45;3.17;;;;;;;22.21;62.34;96852.28;5037953;28;20033;-78
2022/05/18 06:55:01;;;;;;;5.65;3.72;;;;;;;22.75;60.26;96847.28;5043536;28;20033;-78
2022/05/18 06:57:27;;;;;;;7.93;3.47;;;;;;;22.80;59.62;96845.59;5042540;28;20052;-78
2022/05/18 06:59:52;;;;;;;6.43;3.50;;;;;;;22.92;58.34;96858.25;5048959;28;20783;-78
2022/05/18 07:02:18;;;;;;;6.07;2.95;;;;;;;23.00;57.92;96855.31;5018647;28;20105;-78
2022/05/18 07:04:44;;;;;;;6.15;3.10;;;;;;;22.39;59.13;96864.91;5034008;28;20104;-78
2022/05/18 07:07:09;;;;;;;5.32;2.97;;;;;;;22.06;61.66;96857.91;5043905;28;20049;-78
2022/05/18 07:09:36;;;;;;;10.52;3.22;;;;;;;23.05;58.88;96847.41;5027611;28;20038;-78
2022/05/18 07:12:01;;;;;;;7.28;3.00;;;;;;;22.98;57.28;96854.72;5035835;28;20037;-78
2022/05/18 07:14:29;;;;;;;5.88;2.83;;;;;;;23.22;55.39;96848.47;5034886;28;20124;-78
2022/05/18 07:16:55;;;;;;;9.52;3.58;;;;;;;22.82;58.70;96858.78;5047904;28;20394;-78
2022/05/18 07:19:23;;;;;;;7.78;3.10;;;;;;;23.12;55.43;96858.91;5030565;28;20041;-78
2022/05/18 07:21:49;;;;;;;4.55;2.65;;;;;;;23.24;54.68;96856.31;5030048;28;20033;-78
2022/05/18 07:24:15;;;;;;;6.60;2.90;;;;;;;23.54;52.25;96861.72;5029940;28;20052;-79
2022/05/18 07:26:42;;;;;;;5.45;2.35;;;;;;;24.00;52.98;96860.28;5043502;28;20025;-78
2022/05/18 07:29:08;;;;;;;9.00;2.67;;;;;;;24.16;51.88;96870.38;5043611;28;20033;-79
2022/05/18 07:32:08;;;;;;;6.07;3.50;;;;;;;23.08;53.58;96873.00;5051070;28;20048;-80
2022/05/18 07:34:21;;;;;;;4.07;2.40;;;;;;;23.19;53.44;96878.41;5049096;28;20043;-78
2022/05/18 07:36:51;;;;;;;5.68;3.05;;;;;;;23.58;53.51;96870.13;5041889;28;20030;-79
2022/05/18 07:39:17;;;;;;;5.50;2.83;;;;;;;23.74;50.96;96877.56;5040709;28;20115;-79
2022/05/18 07:41:43;;;;;;;6.28;2.95;;;;;;;24.58;49.42;96874.91;5043748;28;20041;-78
2022/05/18 07:44:09;;;;;;;9.88;3.47;;;;;;;23.75;51.31;96873.88;5028807;28;20040;-78
2022/05/18 07:46:35;;;;;;;8.77;2.50;;;;;;;23.78;50.88;96877.97;5030405;28;20061;-79
2022/05/18 07:49:02;;;;;;;7.57;2.97;;;;;;;24.57;50.37;96879.47;5051554;28;20052;-79
2022/05/18 07:51:28;;;;;;;6.93;2.70;;;;;;;24.72;50.13;96878.22;5036312;28;20037;-78
2022/05/18 07:53:54;;;;;;;6.45;2.85;;;;;;;25.24;47.48;96876.44;5026584;28;20029;-79
2022/05/18 07:56:19;;;;;;;5.82;2.95;;;;;;;24.13;49.04;96878.09;5049316;28;20025;-79
2022/05/18 07:58:45;;;;;;;5.05;2.50;;;;;;;24.54;46.49;96881.81;5043856;28;20029;-78
2022/05/18 08:01:11;;;;;;;5.68;2.85;;;;;;;24.90;46.37;96876.22;5032995;28;20049;-78
2022/05/18 08:03:37;;;;;;;8.85;2.70;;;;;;;24.77;47.64;96878.31;5018888;28;20034;-78
2022/05/18 08:06:03;;;;;;;7.05;2.90;;;;;;;25.38;45.63;96877.00;5033808;28;20026;-79
2022/05/18 08:08:29;;;;;;;7.05;3.05;;;;;;;25.56;44.72;96884.13;5042453;28;20080;-79
2022/05/18 08:16:25;;;;;;;7.20;3.10;;;;;;;26.85;41.83;96885.38;5054961;28;20041;-79
2022/05/18 08:18:51;;;;;;;7.32;2.85;;;;;;;27.20;41.25;96877.81;5031595;28;20022;-79
2022/05/18 08:21:18;;;;;;;4.97;2.88;;;;;;;27.13;40.83;96893.38;5028661;28;20182;-79
2022/05/18 08:23:44;;;;;;;6.85;2.80;;;;;;;25.73;44.20;96885.00;5053182;28;20041;-79
2022/05/18 08:26:10;;;;;;;6.72;2.80;;;;;;;25.88;43.23;96891.75;5024867;28;20115;-79
2022/05/18 08:28:37;;;;;;;7.18;2.60;;;;;;;27.02;41.26;96891.56;5044789;28;20023;-78
2022/05/18 08:31:04;;;;;;;6.18;2.72;;;;;;;27.17;40.88;96882.91;5027358;28;20029;-79
2022/05/18 08:33:32;;;;;;;7.30;3.63;;;;;;;27.20;40.26;96890.50;5018583;28;20022;-79
2022/05/18 08:35:58;;;;;;;5.70;2.90;;;;;;;27.74;39.02;96879.84;5031838;28;20466;-81
2022/05/18 08:38:25;;;;;;;6.28;2.67;;;;;;;26.72;41.15;96892.72;5032356;28;20029;-79
2022/05/18 08:41:01;;;;;;;6.63;2.83;;;;;;;26.03;43.84;96882.09;5020284;28;20025;-79
2022/05/18 08:43:27;;;;;;;7.20;2.70;;;;;;;25.90;42.95;96890.47;5047807;28;20747;-79
2022/05/18 08:46:09;;;;;;;6.45;2.70;;;;;;;26.39;41.42;96898.06;5039438;28;20040;-79
2022/05/18 08:48:47;;;;;;;4.93;2.65;;;;;;;26.45;40.93;96892.53;5031125;28;20482;-78
2022/05/18 08:51:19;;;;;;;6.85;3.00;;;;;;;26.44;41.51;96890.91;5036977;28;20033;-79
2022/05/18 08:54:08;;;;;;;6.53;2.80;;;;;;;26.96;40.55;96884.44;5042003;28;20037;-78
2022/05/18 08:56:40;;;;;;;6.13;2.90;;;;;;;27.40;39.26;96888.06;5041651;28;20486;-79
2022/05/18 08:59:13;;;;;;;4.85;2.53;;;;;;;27.62;38.47;96879.13;5027052;28;20500;-78
2022/05/18 09:01:41;;;;;;;4.25;2.20;;;;;;;27.11;39.06;96889.25;5052561;28;20049;-79
2022/05/18 09:04:15;;;;;;;7.45;2.63;;;;;;;26.78;39.77;96888.22;5042511;28;20028;-79
2022/05/18 09:06:57;;;;;;;6.15;2.90;;;;;;;26.81;39.98;96893.13;5044218;28;20281;-78
2022/05/18 09:12:18;;;;;;;5.65;2.78;;;;;;;27.62;38.71;96879.13;5024139;28;20034;-79
2022/05/18 09:14:44;;;;;;;3.10;2.08;;;;;;;28.63;37.54;96875.88;4998953;28;20049;-79
2022/05/18 09:17:36;;;;;;;5.60;2.22;;;;;;;27.34;38.54;96889.06;5030660;28;20044;-79
2022/05/18 09:20:12;;;;;;;3.70;2.20;;;;;;;28.70;35.66;96879.16;5033299;28;20036;-79
2022/05/18 09:22:53;;;;;;;10.70;2.63;;;;;;;28.87;34.59;96877.16;5031532;28;20260;-79
2022/05/18 09:25:28;;;;;;;6.57;2.30;;;;;;;27.71;37.70;96877.63;5014030;28;20041;-79
2022/05/18 09:28:08;;;;;;;5.53;2.35;;;;;;;28.68;34.55;96873.22;5036323;28;20045;-80
2022/05/18 09:30:44;;;;;;;4.93;2.00;;;;;;;28.24;36.53;96872.53;5033893;28;20124;-79
2022/05/18 09:33:38;;;;;;;5.30;2.65;;;;;;;28.23;36.55;96868.19;5047222;28;20051;-79
2022/05/18 09:36:32;;;;;;;5.38;2.42;;;;;;;28.28;35.02;96868.25;5017422;28;20507;-79
2022/05/18 09:39:01;;;;;;;5.32;2.42;;;;;;;27.35;36.35;96879.88;5025368;28;20410;-79
2022/05/18 09:41:36;;;;;;;6.10;2.08;;;;;;;28.33;35.20;96869.09;5031938;28;20035;-79
2022/05/18 09:44:17;;;;;;;4.75;2.10;;;;;;;28.78;34.40;96861.66;5025791;28;20425;-79
2022/05/18 09:46:44;;;;;;;5.65;2.33;;;;;;;27.22;36.20;96870.25;5041829;28;20044;-79
2022/05/18 09:49:29;;;;;;;3.78;2.05;;;;;;;28.38;34.56;96861.03;5038144;28;20027;-79
2022/05/18 09:51:57;;;;;;;4.30;2.17;;;;;;;28.82;34.75;96868.16;5040060;28;20181;-79
2022/05/18 09:54:23;;;;;;;4.78;2.05;;;;;;;27.36;35.51;96869.91;5021292;28;20452;-78
2022/05/18 09:57:18;;;;;;;4.68;2.35;;;;;;;28.59;34.21;96863.94;5040939;28;20077;-79
2022/05/18 09:59:51;;;;;;;4.72;1.98;;;;;;;28.43;33.58;96871.91;5034673;28;20045;-79
2022/05/18 10:07:54;;;;;;;6.65;1.75;;;;;;;29.31;33.11;96854.38;5041791;28;20081;-80
2022/05/18 10:10:19;;;;;;;3.88;1.80;;;;;;;27.39;34.12;96866.69;5036231;28;20102;-78
2022/05/18 10:12:54;;;;;;;5.05;1.80;;;;;;;28.89;32.90;96852.50;5029936;28;20542;-79
2022/05/18 10:15:25;;;;;;;3.72;1.95;;;;;;;28.94;31.63;96862.53;5030947;28;20553;-80
2022/05/18 10:17:54;;;;;;;4.78;1.73;;;;;;;28.52;31.84;96856.03;5014986;28;20517;-79
2022/05/18 10:20:25;;;;;;;3.78;1.70;;;;;;;29.12;32.33;96852.13;5047634;28;20039;-79
2022/05/18 10:22:52;;;;;;;6.80;2.35;;;;;;;29.49;33.00;96842.28;5030775;28;20652;-79
2022/05/18 10:25:39;;;;;;;6.68;1.90;;;;;;;29.71;32.00;96845.66;5043877;28;20043;-79
2022/05/18 10:28:18;;;;;;;4.28;1.98;;;;;;;29.20;33.26;96841.88;5054612;28;20032;-78
2022/05/18 10:31:06;;;;;;;3.63;2.20;;;;;;;29.24;33.01;96846.53;5040017;28;20041;-79
2022/05/18 10:33:41;;;;;;;4.97;1.92;;;;;;;29.88;31.93;96842.72;5040218;28;20029;-79
2022/05/18 10:36:15;;;;;;;3.72;1.92;;;;;;;30.43;30.89;96843.06;5038353;28;20029;-80
2022/05/18 10:38:56;;;;;;;3.78;1.30;;;;;;;31.80;29.95;96835.69;5043478;28;20040;-79
2022/05/18 10:41:28;;;;;;;4.70;1.95;;;;;;;29.33;33.46;96842.22;5038506;28;20033;-79
2022/05/18 10:43:53;;;;;;;5.30;2.65;;;;;;;29.92;32.53;96840.28;5042740;28;20402;-79
2022/05/18 10:46:28;;;;;;;3.55;1.77;;;;;;;30.09;30.97;96835.41;5042180;28;20013;-78
2022/05/18 10:49:13;;;;;;;6.32;2.35;;;;;;;29.61;32.26;96837.47;5036801;28;20042;-79
2022/05/18 10:51:38;;;;;;;3.92;1.95;;;;;;;28.20;33.56;96843.31;5042461;28;20414;-79
2022/05/18 10:54:10;;;;;;;6.72;1.80;;;;;;;30.60;31.96;96835.44;5044831;28;20033;-79
2022/05/18 10:56:36;;;;;;;5.73;2.37;;;;;;;29.93;32.85;96829.16;5019572;28;20467;-79
2022/05/18 10:59:40;;;;;;;5.82;1.90;;;;;;;29.84;32.62;96834.25;5019859;28;20518;-79
2022/05/18 11:02:16;;;;;;;4.57;1.55;;;;;;;30.42;32.13;96833.31;5042274;28;20051;-79
2022/05/18 11:04:53;;;;;;;2.55;1.50;;;;;;;29.59;31.79;96836.91;5034686;28;20053;-79
2022/05/18 11:07:24;;;;;;;5.03;1.92;;;;;;;29.35;32.18;96833.84;5026270;28;20043;-79
2022/05/18 11:09:50;;;;;;;4.85;1.83;;;;;;;29.03;32.51;96828.53;5017709;28;20037;-79
2022/05/18 11:12:35;;;;;;;3.63;1.80;;;;;;;28.71;32.94;96826.69;5037319;28;20790;-79
2022/05/18 11:15:14;;;;;;;4.03;2.17;;;;;;;29.03;31.23;96823.09;5037663;28;20029;-79
2022/05/18 11:17:45;;;;;;;3.28;1.67;;;;;;;30.11;30.72;96822.38;5017769;28;20037;-79
2022/05/18 11:20:30;;;;;;;4.47;2.10;;;;;;;28.91;31.06;96831.41;5044933;28;20048;-78
2022/05/18 11:23:20;;;;;;;3.45;1.88;;;;;;;28.09;32.57;96833.44;5040467;28;21415;-79
2022/05/18 11:25:52;;;;;;;4.32;1.80;;;;;;;29.00;32.04;96826.34;5031953;28;20053;-79
2022/05/18 11:28:42;;;;;;;4.68;2.00;;;;;;;28.57;31.65;96833.59;5037987;28;20033;-79
2022/05/18 11:31:27;;;;;;;5.78;1.70;;;;;;;29.02;31.79;96829.59;5021930;28;20033;-79
2022/05/18 11:33:58;;;;;;;3.63;1.60;;;;;;;28.74;32.17;96834.28;5035128;28;20929;-79
2022/05/18 11:36:55;;;;;;;6.82;1.95;;;;;;;29.42;31.11;96820.03;5035810;28;20030;-78
2022/05/18 11:39:55;;;;;;;3.55;1.75;;;;;;;29.70;30.87;96818.78;5022692;28;20041;-78
2022/05/18 11:42:39;;;;;;;4.80;1.73;;;;;;;29.49;30.08;96816.00;5033574;28;20059;-78
2022/05/18 11:45:40;;;;;;;5.13;1.60;;;;;;;29.84;29.26;96818.00;5043215;28;20029;-79
2022/05/18 11:48:18;;;;;;;5.10;1.60;;;;;;;29.52;31.73;96811.94;5041802;28;20401;-79
2022/05/18 11:50:46;;;;;;;4.57;1.95;;;;;;;29.16;32.52;96814.50;5050954;28;20037;-78
2022/05/18 11:53:39;;;;;;;3.70;1.98;;;;;;;28.72;32.12;96812.06;5040451;28;20496;-79
2022/05/18 11:56:32;;;;;;;4.00;1.95;;;;;;;28.06;34.04;96812.31;5038223;28;20104;-78
2022/05/18 12:02:40;;;;;;;4.35;1.80;;;;;;;29.32;30.78;96794.53;5037305;28;20108;-80
2022/05/18 12:05:31;;;;;;;5.22;1.80;;;;;;;29.71;30.33;96798.72;5040077;28;20134;-79